Latest Coastal Weather Observations for Smithton

IDV60701

Issued at 6:22 am EDT Wednesday 25 January 2017 (issued every 10 minutes, with the page automatically refreshed every 10 minutes)

About coastal observations | Map of coastal stations | Coastal observations for VIC | Marine services | Other Formats
Station Details ID: 091292 Name: SMITHTON AERODROME Lat: -40.83 Lon: 145.08 Height: 7.5 m
Data from the previous 72 hours. | See also: Recent months at Smithton
Date/Time
EDT
Temp
°C
Wind Pressure Rain since
9am
mm
Weather Cloud Vis
km
Sea
Height
m
Swell
Dir  Spd
kts
Gust
kts
hPa Trend Height
m
Period
s
Dir
25/06:00am 6.0 SW 2 5 1019.4 - 0.0 - - - - - - -
25/05:30am 6.0 CALM 0 0 1019.4 - 0.0 - - - - - - -
25/05:00am 6.9 CALM 0 0 1019.3 - 0.0 - - - - - - -
25/04:30am 6.8 CALM 0 4 1019.3 - 0.0 - - - - - - -
25/04:00am 6.7 SW 5 5 1019.4 - 0.0 - - - - - - -
25/03:30am 7.8 W 3 4 1019.6 - 0.0 - - - - - - -
25/03:00am 8.2 W 4 5 1019.8 - 0.0 - - - - - - -
25/02:30am 8.9 W 5 5 1019.8 - 0.0 - - - - - - -
25/02:00am 9.2 CALM 0 0 1019.9 - 0.0 - - - - - - -
25/01:30am 9.0 W 4 5 1019.8 - 0.0 - - - - - - -
25/01:00am 9.3 W 6 7 1019.8 - 0.0 - - - - - - -
25/12:30am 10.4 WSW 4 5 1019.6 - 0.0 - - - - - - -
25/12:00am 10.1 WSW 5 6 1019.5 - 0.0 - - - - - - -
 
Date/Time
EDT
Temp
°C
Wind Pressure Rain since
9am
mm
Weather Cloud Vis
km
Sea
Height
m
Swell
Dir  Spd
kts
Gust
kts
hPa Trend Height
m
Period
s
Dir
24/11:30pm 10.7 WSW 5 6 1019.4 - 0.0 - - - - - - -
24/11:00pm 11.3 W 7 8 1019.4 - 0.0 - - - - - - -
24/10:30pm 11.9 W 8 9 1019.5 - 0.0 - - - - - - -
24/10:00pm 11.5 W 8 9 1019.1 - 0.0 - - - - - - -
24/09:30pm 12.4 W 8 11 1018.7 - 0.0 - - - - - - -
24/09:00pm 13.4 WSW 10 14 1018.3 - 0.0 - - - - - - -
24/08:30pm 14.1 WSW 13 18 1017.9 - 0.0 - - - - - - -
24/08:00pm 15.2 WSW 15 20 1017.3 - 0.0 - - - - - - -
24/07:30pm 15.6 WSW 17 24 1016.8 - 0.0 - - - - - - -
24/07:00pm 16.0 WSW 16 23 1016.3 - 0.0 - - - - - - -
24/06:30pm 17.2 SW 18 26 1016.0 - 0.0 - - - - - - -
24/06:00pm 17.2 WSW 19 25 1015.4 - 0.0 - - - - - - -
24/05:30pm 17.9 WSW 20 27 1014.8 - 0.0 - - - - - - -
24/05:00pm 17.8 SW 21 27 1014.6 - 0.0 - - - - - - -
24/04:30pm 17.9 WSW 22 29 1014.3 - 0.0 - - - - - - -
24/04:00pm 17.1 SW 21 27 1014.1 - 0.0 - - - - - - -
24/03:30pm 18.6 WSW 21 27 1013.8 - 0.0 - - - - - - -
24/03:22pm 18.5 WSW 23 33 1013.6 - 0.0 - - - - - - -
24/03:00pm 18.6 WSW 22 31 1013.4 - 0.0 - - - - - - -
24/02:30pm 18.8 SW 22 32 1012.7 - 0.0 - - - - - - -
24/02:29pm 18.6 SW 22 32 1012.7 - 0.0 - - - - - - -
24/02:00pm 18.2 WSW 25 33 1012.2 - 0.0 - - - - - - -
24/01:47pm 16.9 SW 24 34 1012.3 - 0.0 - - - - - - -
24/01:30pm 18.1 SW 27 33 1011.8 - 0.0 - - - - - - -
24/01:09pm 18.5 WSW 22 32 1011.5 - 0.0 - - - - - - -
24/01:00pm 18.3 WSW 25 34 1011.3 - 0.0 - - - - - - -
24/12:44pm 17.7 WSW 20 30 1011.2 - 0.0 - - - - - - -
24/12:30pm 18.0 SW 25 32 1011.0 - 0.0 - - - - - - -
24/12:09pm 17.5 SW 25 36 1010.6 - 0.0 - - - - - - -
24/12:00pm 18.2 SW 23 32 1010.4 - 0.0 - - - - - - -
24/11:30am 17.7 SW 26 36 1010.0 - 0.0 - - - - - - -
24/11:03am 17.4 SW 26 36 1009.3 - 0.0 - - - - - - -
24/11:00am 17.6 WSW 27 36 1009.4 - 0.0 - - - - - - -
24/10:46am 17.3 SW 26 36 1008.8 - 0.0 - - - - - - -
24/10:30am 17.1 SW 28 37 1008.4 - 0.0 - - - - - - -
24/10:12am 16.8 SW 25 37 1008.0 - 0.0 - - - - - - -
24/10:00am 16.6 SW 28 35 1007.9 - 0.0 - - - - - - -
24/09:33am 16.2 WSW 24 35 1007.3 - 0.0 - - - - - - -
24/09:30am 16.1 WSW 23 31 1007.3 - 0.0 - - - - - - -
24/09:00am 16.0 WSW 22 32 1006.8 - 6.6 - - - - - - -
24/08:30am 15.0 WSW 20 37 1006.4 - 6.6 - - - - - - -
24/08:00am 14.9 WSW 20 30 1005.6 - 6.6 - - - - - - -
24/07:55am 14.4 WSW 18 30 1005.5 - 6.6 - - - - - - -
24/07:30am 14.7 WSW 19 24 1004.9 - 6.6 - - - - - - -
24/07:00am 14.0 WSW 18 24 1003.8 - 6.6 - - - - - - -
24/06:30am 13.9 WSW 20 27 1003.1 - 6.6 - - - - - - -
24/06:08am 14.6 WSW 21 31 1002.5 - 6.6 - - - - - - -
24/06:00am 14.8 WSW 25 33 1001.9 - 6.6 - - - - - - -
24/05:35am 15.6 WSW 21 33 1001.4 - 6.6 - - - - - - -
24/05:30am 15.8 W 22 28 1001.4 - 6.6 - - - - - - -
24/05:12am 16.1 WSW 21 31 1000.7 - 6.6 - - - - - - -
24/05:00am 16.2 W 20 28 1000.3 - 6.6 - - - - - - -
24/04:40am 16.5 W 20 30 1000.4 - 6.6 - - - - - - -
24/04:30am 16.4 W 20 27 1000.3 - 6.6 - - - - - - -
24/04:00am 16.5 W 22 31 999.9 - 6.6 - - - - - - -
24/03:39am 17.0 W 25 36 999.6 - 6.4 - - - - - - -
24/03:30am 17.2 W 25 34 999.6 - 6.4 - - - - - - -
24/03:01am 17.6 W 23 33 999.3 - 6.4 - - - - - - -
24/03:00am 17.5 W 24 33 999.1 - 6.4 - - - - - - -
24/02:30am 18.0 W 20 30 999.0 - 6.2 - - - - - - -
24/02:10am 18.2 WNW 19 29 998.7 - 6.2 - - - - - - -
24/02:00am 18.4 WNW 17 25 998.7 - 6.2 - - - - - - -
24/01:45am 18.6 WNW 15 25 998.9 - 6.2 - - - - - - -
24/01:30am 18.5 NW 11 16 999.0 - 6.2 - - - - - - -
24/01:00am 17.9 NNW 5 6 999.0 - 5.6 - - - - - - -
24/12:30am 17.8 N 3 4 999.1 - 4.4 - - - - - - -
24/12:00am 17.7 N 5 7 999.5 - 4.4 - - - - - - -
 
Date/Time
EDT
Temp
°C
Wind Pressure Rain since
9am
mm
Weather Cloud Vis
km
Sea
Height
m
Swell
Dir  Spd
kts
Gust
kts
hPa Trend Height
m
Period
s
Dir
23/11:30pm 17.7 N 6 7 1000.2 - 4.2 - - - - - - -
23/11:00pm 17.6 N 5 6 1000.4 - 3.8 - - - - - - -
23/10:30pm 17.8 NNE 7 9 1001.3 - 3.2 - - - - - - -
23/10:00pm 18.0 NNE 6 7 1001.8 - 3.0 - - - - - - -
23/09:30pm 18.0 NNE 6 7 1002.6 - 2.2 - - - - - - -
23/09:00pm 18.1 NNE 7 9 1002.7 - 1.6 - - - - - - -
23/08:30pm 18.2 N 8 10 1003.4 - 1.0 - - - - - - -
23/08:00pm 18.5 NNE 10 13 1003.0 - 0.0 - - - - - - -
23/07:30pm 19.2 NNE 8 11 1002.4 - 0.0 - - - - - - -
23/07:00pm 19.6 ENE 9 11 1001.5 - 0.0 - - - - - - -
23/06:30pm 19.4 ENE 12 16 1001.1 - 0.0 - - - - - - -
23/06:00pm 19.7 ENE 13 16 1001.4 - 0.0 - - - - - - -
23/05:30pm 19.9 ENE 13 19 1001.6 - 0.0 - - - - - - -
23/05:00pm 20.3 ENE 14 18 1001.8 - 0.0 - - - - - - -
23/04:30pm 21.1 ENE 16 20 1002.2 - 0.0 - - - - - - -
23/04:00pm 21.7 ENE 15 20 1002.5 - 0.0 - - - - - - -
23/03:30pm 21.9 ENE 14 19 1003.0 - 0.0 - - - - - - -
23/03:00pm 23.0 ENE 15 19 1003.3 - 0.0 - - - - - - -
23/02:30pm 22.5 ENE 16 21 1003.9 - 0.0 - - - - - - -
23/02:00pm 22.3 ENE 16 22 1004.3 - 0.0 - - - - - - -
23/01:30pm 22.7 ENE 15 19 1004.8 - 0.0 - - - - - - -
23/01:00pm 22.0 ENE 15 21 1005.0 - 0.0 - - - - - - -
23/12:30pm 21.6 ENE 15 19 1005.6 - 0.0 - - - - - - -
23/12:00pm 21.3 E 16 21 1005.7 - 0.0 - - - - - - -
23/11:30am 20.8 ENE 16 21 1006.1 - 0.0 - - - - - - -
23/11:00am 20.1 ENE 14 20 1006.4 - 0.0 - - - - - - -
23/10:30am 19.5 ENE 16 22 1006.8 - 0.0 - - - - - - -
23/10:00am 19.3 ENE 16 22 1007.1 - 0.0 - - - - - - -
23/09:30am 18.9 E 16 24 1006.9 - 0.0 - - - - - - -
23/09:00am 18.4 ENE 17 21 1007.0 - 0.0 - - - - - - -
23/08:30am 18.0 ENE 14 19 1007.6 - 0.0 - - - - - - -
23/08:00am 16.9 E 13 18 1007.3 - 0.0 - - - - - - -
23/07:30am 16.1 E 9 12 1007.4 - 0.0 - - - - - - -
23/07:00am 15.1 E 8 12 1007.7 - 0.0 - - - - - - -
23/06:30am 15.0 E 10 13 1008.1 - 0.0 - - - - - - -
23/06:00am 14.5 E 8 11 1008.3 - 0.0 - - - - - - -
23/05:30am 14.0 E 5 7 1008.6 - 0.0 - - - - - - -
23/05:00am 13.7 E 4 6 1008.3 - 0.0 - - - - - - -
23/04:30am 14.1 E 7 10 1008.4 - 0.0 - - - - - - -
23/04:00am 13.8 E 6 8 1008.8 - 0.0 - - - - - - -
23/03:30am 13.7 E 6 9 1009.1 - 0.0 - - - - - - -
23/03:00am 13.0 E 6 7 1009.7 - 0.0 - - - - - - -
23/02:30am 12.6 E 4 5 1010.2 - 0.0 - - - - - - -
23/02:00am 11.6 CALM 0 0 1010.7 - 0.0 - - - - - - -
23/01:30am 14.1 ENE 6 8 1010.8 - 0.0 - - - - - - -
23/01:00am 13.3 ENE 4 6 1010.9 - 0.0 - - - - - - -
23/12:30am 14.6 ENE 7 8 1011.1 - 0.0 - - - - - - -
23/12:00am 13.7 N 5 6 1011.5 - 0.0 - - - - - - -
 
Date/Time
EDT
Temp
°C
Wind Pressure Rain since
9am
mm
Weather Cloud Vis
km
Sea
Height
m
Swell
Dir  Spd
kts
Gust
kts
hPa Trend Height
m
Period
s
Dir
22/11:30pm 14.1 N 4 5 1011.8 - 0.0 - - - - - - -
22/11:00pm 15.4 N 5 6 1012.1 - 0.0 - - - - - - -
22/10:30pm 16.0 N 6 7 1012.3 - 0.0 - - - - - - -
22/10:00pm 15.1 NW 4 4 1012.4 - 0.0 - - - - - - -
22/09:30pm 16.4 CALM 0 0 1012.5 - 0.0 - - - - - - -
22/09:00pm 17.4 NW 3 4 1012.4 - 0.0 - - - - - - -
22/08:30pm 18.8 NW 6 7 1012.4 - 0.0 - - - - - - -
22/08:00pm 20.4 NNW 8 9 1012.3 - 0.0 - - - - - - -
22/07:30pm 21.5 NW 8 11 1012.2 - 0.0 - - - - - - -
22/07:00pm 22.0 NNW 11 13 1012.2 - 0.0 - - - - - - -
22/06:30pm 23.2 NNW 11 13 1012.2 - 0.0 - - - - - - -
22/06:00pm 24.1 NW 9 11 1012.3 - 0.0 - - - - - - -
22/05:30pm 24.5 WNW 9 11 1012.5 - 0.0 - - - - - - -
22/05:00pm 24.9 W 8 11 1012.7 - 0.0 - - - - - - -
22/04:30pm 24.3 WSW 7 11 1013.1 - 0.0 - - - - - - -
22/04:00pm 24.7 W 6 10 1013.3 - 0.0 - - - - - - -
22/03:30pm 24.3 SW 7 11 1013.4 - 0.0 - - - - - - -
22/03:00pm 23.7 S 5 7 1013.7 - 0.0 - - - - - - -
22/02:30pm 24.4 W 8 12 1013.9 - 0.0 - - - - - - -
22/02:00pm 23.2 WNW 8 11 1014.3 - 0.0 - - - - - - -
22/01:30pm 22.6 NNE 9 14 1014.8 - 0.0 - - - - - - -
22/01:00pm 21.1 NNE 10 13 1015.1 - 0.0 - - - - - - -
22/12:30pm 20.8 NNE 9 11 1015.3 - 0.0 - - - - - - -
22/12:00pm 20.5 N 5 10 1015.5 - 0.0 - - - - - - -
22/11:30am 20.3 NW 4 7 1015.6 - 0.0 - - - - - - -
22/11:00am 19.2 WNW 5 10 1015.8 - 0.0 - - - - - - -
22/10:30am 18.3 WNW 6 9 1016.0 - 0.0 - - - - - - -
22/10:00am 17.4 NNW 5 9 1016.1 - 0.0 - - - - - - -
22/09:30am 16.2 NW 5 7 1016.6 - 0.0 - - - - - - -
22/09:00am 14.6 S 1 3 1016.6 - 0.0 - - - - - - -
22/08:30am 13.2 S 3 4 1016.7 - 0.0 - - - - - - -
22/08:00am 11.4 S 4 5 1016.5 - 0.0 - - - - - - -
22/07:30am 9.8 S 4 5 1016.3 - 0.0 - - - - - - -
22/07:00am 8.6 S 4 5 1016.0 - 0.0 - - - - - - -
22/06:30am 8.1 S 5 7 1015.7 - 0.0 - - - - - - -

Other Formats:

Comma delimited format used in spreadsheet applications
http://www.bom.gov.au/fwo/IDV60701/IDV60701.94953.axf

JavaScript Object Notation format (JSON) in row-major order
http://www.bom.gov.au/fwo/IDV60701/IDV60701.94953.json